Atlanta, Michigan
Current Conditions -  °F | °C
As of 4:33 PM on Wednesday 17 Dec 2014 (Local Time) from KGLR Reporting Station
Light Snow Light Snow  
Wind Chill: 15°   Ceiling: 1100
Heat Index: 25°   Visibility: 1.2mi
Dew Point: 23°   Wind: 10mph
Humidity: 92%   Direction: 300°WNW
Pressure: 29.96"   Gusts: 18mph
Location:  45°N, 84.14°W
Report Text: KGLR 172133Z AUTO 30009G16KT 270V330 1 1/4SM -SN BR BKN011 BKN017 OVC031 M04/M05 A2996 RMK AO2 P0000 T10391050
Loading
Personal Weather Stations






























Interactive Weather Map New forecast layout! Learn more

10-Day Weather Forecast

Advertisements
Track Severe Weather on mobile